Date,TemperatureHighF,TemperatureAvgF,TemperatureLowF,DewpointHighF,DewpointAvgF,DewpointLowF,HumidityHigh,HumidityAvg,HumidityLow,PressureMaxIn,PressureMinIn,WindSpeedMaxMPH,WindSpeedAvgMPH,GustSpeedMaxMPH,PrecipitationSumIn
2013-1-1,24.2,14.4,9.1,13.2,7.6,3.9,84,75,60,30.34,30.13,14,5,17,0.00
2013-1-2,25.7,14.8,8.0,13.3,7.8,3.1,83,74,58,30.36,30.24,13,5,16,0.00
2013-1-3,24.7,12.4,1.5,8.7,3.1,-4.1,78,67,47,30.48,30.35,13,5,15,0.00
2013-1-4,23.0,11.1,4.3,8.1,2.4,-2.2,79,68,50,30.40,30.24,12,5,17,0.01
2013-1-5,27.3,11.7,3.0,10.5,3.5,-2.6,79,70,47,30.47,30.33,19,6,21,0.00
2013-1-6,21.9,11.9,0.3,10.5,5.3,-3.6,86,75,60,30.42,30.16,15,5,20,0.00
2013-1-7,24.0,13.5,6.9,12.1,7.1,3.5,88,76,59,30.18,30.08,14,5,19,0.00
2013-1-8,30.1,19.5,8.4,16.4,11.2,4.8,88,71,54,30.41,30.11,14,4,22,0.00
2013-1-9,35.0,23.0,15.8,19.7,14.8,10.2,80,71,52,30.43,30.13,17,7,20,0.00
2013-1-10,46.4,28.3,18.1,28.3,18.4,12.4,81,68,41,30.12,29.48,31,9,40,0.00
2013-1-11,41.4,25.5,13.2,31.0,13.1,1.7,88,60,41,29.91,29.40,27,5,42,0.00
2013-1-12,21.5,10.9,3.8,8.3,2.0,-3.1,75,67,52,30.00,29.90,12,5,17,0.00
2013-1-13,16.3,8.9,4.6,8.9,1.6,-5.1,83,72,57,30.09,29.97,12,6,17,0.00
2013-1-14,17.1,5.9,-2.2,-2.7,-6.0,-9.6,70,58,38,30.27,30.09,18,8,21,0.00
2013-1-15,16.4,6.6,-4.2,4.4,-4.5,-12.1,72,60,42,30.49,30.27,18,5,22,0.00
2013-1-16,26.7,13.6,5.9,9.7,3.3,-1.8,76,64,43,30.56,30.43,13,5,20,0.00
2013-1-17,28.6,16.8,7.7,14.3,8.5,2.4,80,70,53,30.60,30.47,15,6,19,0.00
2013-1-18,30.4,17.8,8.7,17.7,10.5,5.0,89,74,54,30.50,30.36,16,6,20,0.00
2013-1-19,35.5,19.1,10.3,19.8,11.9,5.6,86,74,47,30.52,30.40,17,6,20,0.00
2013-1-20,33.5,19.7,12.4,18.2,11.9,7.3,85,72,46,30.45,30.30,15,6,19,0.00
2013-1-21,36.8,21.8,13.4,19.4,12.2,7.2,80,67,40,30.44,30.33,17,8,23,0.00
2013-1-22,36.4,23.1,14.0,19.5,12.5,6.6,78,64,43,30.45,30.34,15,7,20,0.00
2013-1-23,33.5,22.1,14.4,17.8,12.1,6.6,78,66,41,30.46,30.36,17,6,22,0.00
2013-1-24,33.1,27.0,17.8,27.0,18.5,12.2,83,70,57,30.39,30.29,12,3,17,0.00
2013-1-25,32.4,30.3,27.4,30.9,28.2,22.7,96,92,80,30.36,30.24,6,2,10,0.02
2013-1-26,39.8,35.4,30.9,37.2,33.9,29.9,97,94,87,30.24,29.84,13,3,14,0.45
2013-1-27,48.9,36.4,31.7,38.7,34.1,30.9,98,92,57,29.95,29.72,17,2,37,0.13
2013-1-28,46.2,33.9,23.1,35.9,29.9,21.4,94,86,59,29.86,29.71,21,4,25,0.16
2013-1-29,30.0,22.4,14.4,20.8,15.7,10.2,92,76,53,30.09,29.83,7,2,10,0.03
2013-1-30,30.5,23.0,13.4,22.4,17.0,10.3,89,78,61,30.20,30.09,5,0,8,0.01
2013-1-31,41.0,29.1,19.3,29.7,22.8,16.2,88,78,59,30.36,30.20,9,3,14,0.01
2013-2-1,44.3,31.5,23.4,30.7,24.4,19.0,87,76,54,30.38,30.25,10,4,13,0.00
2013-2-2,42.2,31.1,22.1,26.8,22.7,16.6,83,71,52,30.52,30.38,19,7,21,0.00
2013-2-3,37.5,30.5,25.7,27.2,22.8,19.7,83,73,56,30.38,30.13,13,6,17,0.00
2013-2-4,44.5,30.7,21.3,29.9,22.8,16.4,83,73,48,30.24,30.11,12,6,18,0.00
2013-2-5,48.7,33.1,22.5,28.2,22.5,17.4,82,66,37,30.21,29.99,16,7,20,0.00
2013-2-6,44.2,35.3,27.8,32.1,25.7,21.6,88,69,50,30.12,29.95,14,6,21,0.00
2013-2-7,45.3,34.4,26.6,30.0,23.3,18.4,86,65,37,30.26,30.05,14,7,18,0.00
2013-2-8,54.9,38.1,26.9,30.4,22.4,17.4,75,55,25,30.06,29.59,26,9,37,0.00
2013-2-9,39.3,33.8,28.6,30.0,25.6,19.5,90,73,47,29.76,29.59,14,2,18,0.00
2013-2-10,37.7,28.8,22.1,26.9,21.9,18.5,91,76,53,29.90,29.76,12,4,16,0.04
2013-2-11,32.4,26.3,19.8,24.1,18.7,8.9,94,74,49,30.12,29.89,12,6,15,0.00
2013-2-12,35.1,22.6,12.8,14.2,9.7,5.8,73,59,35,30.27,30.13,18,6,22,0.00
2013-2-13,40.1,30.2,23.4,20.6,17.0,13.8,74,59,38,30.29,30.17,11,3,14,0.01
2013-2-14,44.7,32.7,25.8,23.3,19.6,16.5,77,60,35,30.31,30.18,9,2,13,0.00
2013-2-15,44.0,32.0,22.3,19.3,16.5,14.5,73,54,32,30.45,30.31,11,4,13,0.00
2013-2-16,47.3,32.5,21.1,20.3,16.9,13.2,72,55,29,30.48,30.16,17,6,20,0.00
2013-2-17,50.3,35.3,25.0,25.3,18.1,14.0,70,52,26,30.16,29.72,17,8,22,0.00
2013-2-18,40.9,31.6,23.2,14.4,11.6,5.1,62,45,23,30.15,29.93,12,4,17,0.00
2013-2-19,46.0,31.9,19.7,16.5,12.0,8.8,64,45,25,30.10,29.66,16,8,22,0.00
2013-2-20,46.4,38.0,28.9,29.1,22.5,15.2,76,55,36,29.66,29.51,11,4,16,0.00
2013-2-21,42.9,34.7,29.3,29.8,24.0,19.1,95,67,43,29.89,29.62,11,3,16,0.06
2013-2-22,36.6,29.4,22.8,24.6,19.5,14.1,77,67,41,30.08,29.89,13,5,15,0.00
2013-2-23,35.4,24.1,19.0,26.8,16.9,9.8,94,75,50,30.06,29.73,15,7,25,0.00
2013-2-24,33.5,25.9,19.5,25.1,19.8,15.0,94,79,60,30.10,29.82,13,4,18,0.07
2013-2-25,38.6,26.7,15.7,21.1,15.8,8.8,76,64,45,30.23,29.93,16,5,20,0.00
2013-2-26,34.6,28.4,21.8,28.1,19.0,14.6,94,69,45,30.21,29.90,11,4,17,0.04
2013-2-27,37.2,25.2,14.6,16.7,11.5,6.8,75,58,28,30.37,30.21,14,6,18,0.02
2013-2-28,41.5,28.2,15.1,18.5,12.0,6.6,70,52,29,30.48,30.35,16,6,19,0.00
2013-3-1,48.6,36.9,29.6,27.0,23.4,17.7,74,59,40,30.52,30.40,9,4,13,0.00
2013-3-2,56.8,39.7,26.7,30.1,25.8,21.1,81,60,33,30.52,30.18,14,6,19,0.00
2013-3-3,55.3,42.5,33.0,37.0,29.3,26.2,87,61,36,30.18,29.86,16,5,19,0.04
2013-3-4,49.6,38.7,28.7,40.2,28.0,13.6,93,68,40,30.27,29.83,14,4,23,0.05
2013-3-5,49.6,33.6,22.0,18.7,12.5,5.8,63,45,17,30.39,30.13,16,8,20,0.00
2013-3-6,64.1,44.4,28.0,25.7,19.3,16.3,65,41,17,30.15,29.86,22,9,33,0.00
2013-3-7,65.3,50.9,35.3,27.0,17.9,5.6,67,33,10,29.99,29.84,22,6,30,0.00
2013-3-8,54.8,42.6,36.8,38.4,29.3,21.0,92,63,29,29.89,29.68,15,3,20,0.12
2013-3-9,40.2,34.9,32.5,35.4,30.5,19.7,94,85,56,30.11,29.65,17,4,23,0.08
2013-3-10,48.0,36.0,25.3,26.0,21.3,17.2,73,56,34,30.28,30.11,14,6,19,0.00
2013-3-11,51.0,39.2,28.6,29.8,25.1,21.4,76,59,38,30.25,30.09,13,6,17,0.00
2013-3-12,57.5,45.5,34.5,30.9,29.1,26.8,79,55,32,30.31,30.16,9,3,14,0.00
2013-3-13,63.4,47.3,34.3,30.2,26.3,17.7,77,49,18,30.42,30.30,15,6,19,0.00
2013-3-14,70.0,51.1,35.7,30.9,27.5,21.2,71,44,17,30.43,30.24,18,7,21,0.00
2013-3-15,69.8,52.7,39.8,31.3,29.2,23.5,66,43,18,30.26,29.97,15,7,18,0.00
2013-3-16,64.6,53.0,42.7,35.1,31.9,29.4,69,45,30,29.98,29.84,16,5,29,0.00
2013-3-17,59.2,48.2,40.4,35.6,20.9,1.5,72,40,14,29.93,29.71,21,6,31,0.00
2013-3-18,55.3,44.7,32.8,17.7,11.5,4.3,50,27,15,30.07,29.93,16,3,24,0.00
2013-3-19,55.5,45.4,36.5,20.1,6.8,-11.3,51,25,6,30.23,30.02,13,5,18,0.00
2013-3-20,58.5,44.4,31.1,31.2,14.6,5.0,55,31,18,30.23,29.85,18,7,22,0.00
2013-3-21,52.1,43.6,37.2,40.6,27.2,3.3,91,58,14,29.92,29.72,14,3,29,0.28
2013-3-22,52.6,38.9,29.9,23.1,17.1,0.0,68,45,12,29.92,29.65,17,7,31,0.00
2013-3-23,34.9,29.0,22.1,20.0,7.7,1.6,69,41,26,30.14,29.86,17,5,22,0.00
2013-3-24,37.6,28.3,19.4,13.8,7.3,0.4,59,42,22,30.19,30.07,13,6,21,0.00
2013-3-25,45.6,31.5,18.5,9.4,4.8,-5.1,60,36,12,30.28,30.12,16,7,20,0.00
2013-3-26,62.1,43.2,28.9,21.0,12.6,6.0,43,30,16,30.16,29.88,18,8,23,0.00
2013-3-27,66.7,51.7,37.4,27.9,20.4,12.1,61,33,13,30.07,29.93,14,6,18,0.00
2013-3-28,70.6,54.1,39.4,23.0,20.0,16.5,49,29,13,30.10,29.99,16,6,20,0.00
2013-3-29,70.2,55.7,43.9,31.8,26.0,21.1,46,33,16,30.19,30.08,15,6,21,0.00
2013-3-30,71.7,54.8,40.1,33.1,28.9,20.6,67,41,15,30.23,30.06,14,6,29,0.00
2013-3-31,70.1,54.8,39.6,29.4,22.4,7.6,59,33,10,30.17,29.96,17,7,21,0.00
2013-4-1,68.3,55.0,44.3,34.8,25.5,18.0,54,33,15,30.04,29.81,20,7,29,0.00
2013-4-2,54.9,47.3,39.2,35.7,33.0,29.5,74,58,42,30.06,29.91,16,5,20,0.00
2013-4-3,65.8,51.2,38.3,34.9,30.1,24.9,75,49,23,30.17,30.05,14,3,19,0.00
2013-4-4,70.3,55.6,39.6,27.6,24.5,21.3,55,32,17,30.24,30.02,13,5,19,0.00
2013-4-5,68.9,58.1,50.5,39.2,28.1,20.2,58,34,17,30.03,29.81,19,7,33,0.00
2013-4-6,66.3,54.0,42.6,36.9,30.5,19.2,68,45,17,30.05,29.87,19,6,23,0.00
2013-4-7,68.3,54.6,42.1,35.9,28.3,13.9,73,43,16,29.97,29.67,21,7,29,0.00
2013-4-8,64.1,51.2,43.5,40.9,27.8,17.5,83,45,22,29.67,29.34,23,8,42,0.17
2013-4-9,44.5,30.7,22.3,34.0,20.7,9.0,84,67,54,30.07,29.48,22,10,30,0.00
2013-4-10,44.7,31.6,20.2,22.7,12.0,6.2,57,45,25,30.16,29.99,20,8,24,0.00
2013-4-11,55.1,42.6,31.9,32.9,26.3,20.0,66,53,39,30.03,29.86,9,2,14,0.00
2013-4-12,64.1,50.3,38.6,35.4,27.8,17.4,76,47,17,29.97,29.86,18,5,21,0.00
2013-4-13,67.5,53.7,36.6,43.5,25.9,15.5,85,38,15,29.91,29.42,22,8,36,0.09
2013-4-14,56.2,47.3,38.2,43.2,22.5,8.2,89,43,16,29.83,29.57,13,4,24,0.18
2013-4-15,47.9,39.9,33.5,37.2,31.1,15.8,94,75,28,29.74,29.52,15,5,23,0.43
2013-4-16,55.6,41.0,27.7,37.7,32.5,26.5,95,74,36,29.89,29.55,24,8,39,0.00
2013-4-17,34.6,28.9,24.0,26.5,20.4,14.2,95,72,47,30.14,29.80,23,9,24,0.01
2013-4-18,39.2,30.9,22.6,18.7,14.2,10.9,66,51,35,30.32,30.14,13,5,19,0.00
2013-4-19,52.2,39.5,25.7,30.2,20.5,16.8,72,49,28,30.33,30.04,14,5,19,0.00
2013-4-20,58.6,47.2,39.6,37.7,33.7,29.1,77,61,36,30.12,29.98,13,6,18,0.00
2013-4-21,63.3,49.9,36.1,37.6,29.3,15.6,90,53,16,30.21,29.98,14,6,20,0.00
2013-4-22,67.8,55.5,44.3,32.8,26.9,19.9,59,35,16,30.00,29.82,23,6,26,0.00
2013-4-23,49.5,42.3,32.5,29.4,15.5,8.2,55,35,19,30.15,29.98,24,7,24,0.00
2013-4-24,59.2,46.5,33.5,16.5,12.9,7.7,48,28,13,30.21,30.11,14,7,19,0.00
2013-4-25,69.4,52.9,37.1,20.5,15.7,9.5,46,26,10,30.15,29.90,14,7,19,0.00
2013-4-26,71.6,57.3,43.2,22.7,17.3,7.9,40,24,9,30.23,30.01,15,6,20,0.00
2013-4-27,73.9,63.4,47.4,23.0,17.0,8.1,34,18,8,30.31,30.09,13,5,17,0.00
2013-4-28,79.0,62.0,44.4,27.4,21.8,16.9,43,24,11,30.15,29.91,16,5,19,0.00
2013-4-29,80.8,65.6,48.2,30.7,25.5,16.4,48,25,10,29.97,29.72,12,5,22,0.00
2013-4-30,75.2,57.5,46.9,39.4,28.9,25.0,72,35,16,29.93,29.63,22,7,30,0.01
2013-5-1,53.6,45.7,38.5,39.0,27.3,12.5,89,54,21,30.44,29.95,18,8,25,0.14
2013-5-2,57.3,46.0,34.7,18.0,13.5,6.5,48,29,15,30.62,30.42,17,7,25,0.00
2013-5-3,68.8,52.2,35.2,19.9,14.4,6.7,48,26,9,30.42,29.97,15,6,20,0.00
2013-5-4,76.8,58.7,41.1,25.0,18.1,6.7,44,24,7,30.00,29.82,22,6,33,0.00
2013-5-5,74.9,64.1,53.5,30.5,22.6,11.6,40,23,11,29.97,29.88,23,5,32,0.00
2013-5-6,70.2,58.2,47.7,46.8,37.1,20.3,87,49,20,30.08,29.91,14,4,25,0.16
2013-5-7,63.2,50.3,44.2,48.7,43.8,39.3,91,79,48,30.07,29.98,17,4,27,0.26
2013-5-8,53.8,47.7,42.6,44.4,42.6,40.1,94,83,65,30.11,30.00,11,3,13,0.18
2013-5-9,65.3,53.0,44.4,48.0,44.2,38.6,95,74,44,30.16,30.05,10,3,14,0.09
2013-5-10,71.6,57.8,43.1,42.9,37.1,29.6,83,52,22,30.28,30.14,12,5,30,0.00
2013-5-11,75.4,61.5,45.9,38.1,33.9,27.0,67,39,18,30.39,30.22,13,4,17,0.00
2013-5-12,79.9,66.1,50.5,38.5,35.8,31.5,61,35,19,30.34,30.16,13,5,15,0.00
2013-5-13,85.2,69.4,54.1,39.6,35.5,28.0,54,32,13,30.30,30.08,16,6,22,0.00
2013-5-14,88.1,71.0,55.1,41.1,37.0,32.5,51,31,14,30.12,29.92,19,6,27,0.00
2013-5-15,83.8,68.3,58.2,50.0,41.9,36.8,54,40,19,30.02,29.85,16,6,23,0.03
2013-5-16,83.4,68.3,52.4,45.0,37.5,23.9,69,38,15,30.00,29.80,17,6,22,0.00
2013-5-17,79.8,69.9,56.0,33.4,24.3,12.0,41,20,8,29.94,29.82,25,8,27,0.00
2013-5-18,69.8,61.2,53.4,43.1,36.1,28.7,58,40,24,30.00,29.92,16,3,21,0.02
2013-5-19,65.7,55.6,46.7,40.5,36.3,28.0,73,51,27,30.01,29.91,14,5,21,0.03
2013-5-20,63.8,55.4,45.9,44.5,37.2,33.9,69,52,34,30.11,29.98,16,5,22,0.00
2013-5-21,75.0,62.0,48.5,39.1,34.5,27.6,65,39,18,30.13,29.89,14,3,17,0.00
2013-5-22,83.9,69.7,51.5,36.1,27.6,15.8,50,25,9,29.91,29.71,20,8,29,0.00
2013-5-23,85.9,77.1,64.0,31.0,15.1,-2.9,23,11,4,29.87,29.72,30,10,39,0.00
2013-5-24,83.2,74.1,61.0,27.0,15.5,3.7,23,11,6,30.03,29.83,21,7,31,0.00
2013-5-25,85.4,70.1,51.9,26.1,17.9,9.4,30,16,6,30.05,29.88,19,7,28,0.00
2013-5-26,84.7,70.8,55.5,27.0,17.4,1.0,28,15,5,30.03,29.86,15,6,25,0.00
2013-5-27,81.9,69.1,53.5,27.1,19.4,9.7,26,16,9,29.97,29.79,13,4,16,0.00
2013-5-28,77.9,69.2,50.2,45.2,29.7,20.7,83,27,12,29.86,29.62,25,6,30,0.08
2013-5-29,69.5,57.8,47.3,47.2,37.4,23.8,90,54,19,29.85,29.73,16,3,21,0.05
2013-5-30,73.4,61.3,44.8,37.4,28.6,17.9,69,34,13,29.97,29.83,17,5,26,0.00
2013-5-31,74.8,65.0,55.2,29.7,15.5,-12.1,36,18,3,30.15,29.96,21,4,27,0.00
2013-6-1,76.8,64.4,49.8,28.8,23.2,16.1,37,22,12,30.27,30.07,13,5,20,0.00
2013-6-2,88.4,69.9,49.4,34.7,27.7,18.7,47,24,8,30.13,29.82,16,6,21,0.00
2013-6-3,90.3,74.5,56.6,33.3,27.6,13.7,33,19,6,29.97,29.83,21,7,26,0.00
2013-6-4,90.2,74.1,56.6,35.3,29.2,21.8,35,21,9,30.04,29.87,17,6,31,0.00
2013-6-5,86.0,73.4,58.5,36.3,28.6,13.9,38,21,7,30.09,29.97,13,6,22,0.00
2013-6-6,86.8,73.0,55.3,36.7,30.5,27.0,38,22,13,30.12,29.95,16,7,20,0.00
2013-6-7,87.6,74.4,60.9,38.3,33.5,28.3,37,24,12,30.08,29.88,14,5,18,0.00
2013-6-8,91.4,77.1,61.2,41.8,34.0,20.8,40,23,8,29.98,29.86,13,5,19,0.00
2013-6-9,93.6,78.9,62.7,37.5,32.7,22.4,34,20,8,30.12,29.94,15,5,23,0.00
2013-6-10,98.4,81.4,63.3,37.6,29.7,9.2,34,18,5,30.03,29.84,19,7,25,0.00
2013-6-11,91.4,83.5,73.1,31.8,16.6,0.4,16,9,4,30.08,29.90,25,7,30,0.00
2013-6-12,94.0,78.0,61.1,33.1,26.1,16.0,28,16,7,30.14,30.01,15,6,20,0.00
2013-6-13,91.5,80.9,66.9,34.7,27.6,23.1,23,15,9,30.08,29.86,22,9,30,0.00
2013-6-14,90.4,77.9,62.3,35.0,18.7,-14.1,31,14,2,30.07,29.92,12,4,16,0.00
2013-6-15,89.0,75.0,58.1,35.9,24.5,11.3,24,16,9,30.09,29.97,15,6,21,0.00
2013-6-16,88.1,76.4,62.8,46.5,37.8,31.5,54,26,14,30.17,30.00,13,4,23,0.02
2013-6-17,92.1,77.5,60.5,42.2,34.3,17.3,46,24,7,30.14,29.97,14,5,18,0.00
2013-6-18,92.7,78.2,60.2,38.3,24.6,3.0,38,17,4,30.05,29.82,23,6,29,0.00
2013-6-19,91.3,77.7,59.7,24.0,11.3,-9.3,19,9,2,29.88,29.73,26,8,34,0.00
2013-6-20,90.5,76.7,59.9,25.7,14.1,-0.3,22,10,4,29.98,29.81,20,6,31,0.00
2013-6-21,92.0,77.0,57.5,25.0,15.3,3.9,24,11,4,30.00,29.83,15,6,31,0.00
2013-6-22,89.8,76.6,59.2,31.8,18.4,8.9,23,12,5,29.97,29.85,17,7,28,0.00
2013-6-23,92.1,76.1,58.2,31.0,22.6,10.8,29,15,7,30.02,29.79,14,5,19,0.00
2013-6-24,87.0,76.1,62.4,30.1,22.9,14.6,24,15,8,29.91,29.82,19,7,29,0.00
2013-6-25,89.2,78.8,65.2,37.3,31.2,24.0,29,18,13,30.06,29.89,11,3,16,0.00
2013-6-26,95.7,78.0,62.8,38.5,34.5,27.8,35,22,10,30.17,30.05,16,6,21,0.00
2013-6-27,100.7,84.7,67.8,43.6,32.8,24.2,29,17,7,30.28,30.12,16,7,22,0.00
2013-6-28,103.3,86.1,69.2,40.8,34.0,17.8,29,17,5,30.27,30.06,18,6,27,0.00
2013-6-29,98.4,84.8,71.9,44.2,39.0,31.3,32,21,10,30.19,30.02,21,6,23,0.00
2013-6-30,96.0,82.5,67.7,47.1,41.8,34.7,40,25,12,30.20,29.98,17,6,21,0.00
2013-7-1,96.9,84.1,68.2,45.9,39.3,30.9,41,23,10,30.23,30.05,18,7,24,0.00
2013-7-2,95.6,84.4,71.5,43.3,38.1,29.1,33,21,10,30.19,30.00,19,8,25,0.00
2013-7-3,97.5,80.1,65.8,46.8,38.1,27.7,36,24,9,30.13,29.94,31,8,40,0.00
2013-7-4,91.8,80.1,69.2,50.9,46.0,40.8,44,31,17,30.08,29.88,19,5,19,0.00
2013-7-5,95.4,84.0,72.1,51.8,46.6,38.9,48,29,16,30.00,29.81,14,5,23,0.00
2013-7-6,92.6,80.7,71.7,52.0,47.6,42.8,48,33,20,30.06,29.90,14,4,24,0.00
2013-7-7,95.7,79.5,66.1,56.2,48.3,39.5,63,36,15,30.17,29.95,16,6,26,0.01
2013-7-8,94.8,76.9,62.9,55.5,49.2,33.7,73,44,12,30.21,30.06,17,6,21,0.00
2013-7-9,98.2,84.6,68.9,44.9,40.2,25.4,39,23,8,30.25,30.09,14,6,19,0.00
2013-7-10,100.7,86.2,70.1,41.3,34.4,16.8,33,18,5,30.19,29.96,15,6,20,0.00
2013-7-11,99.1,82.2,70.1,54.9,37.5,30.6,37,21,15,30.10,29.90,18,8,23,0.04
2013-7-12,90.6,82.0,74.5,57.6,54.0,49.7,55,39,25,30.12,29.98,13,6,22,0.01
2013-7-13,90.8,79.2,65.9,59.2,55.1,48.7,75,47,24,30.19,30.03,11,3,23,0.00
2013-7-14,92.2,80.8,68.9,57.3,52.5,47.5,62,39,22,30.22,30.02,12,5,17,0.00
2013-7-15,97.1,81.2,67.1,60.3,50.0,41.4,58,36,15,30.13,29.90,14,5,23,0.00
2013-7-16,92.0,80.3,66.6,58.5,55.1,50.9,71,44,27,30.15,29.98,16,4,24,0.01
2013-7-17,91.1,77.9,64.5,65.0,59.7,51.9,92,59,28,30.25,30.09,15,4,19,0.28
2013-7-18,92.4,72.7,62.3,62.8,60.0,52.6,90,69,31,30.28,30.05,23,4,33,0.87
2013-7-19,90.5,75.3,63.7,62.1,58.0,51.6,86,59,29,30.23,29.99,10,4,17,0.00
2013-7-20,95.2,79.0,65.6,56.7,50.8,33.4,69,42,12,30.12,29.90,14,4,20,0.00
2013-7-21,98.5,82.2,65.8,48.9,41.2,23.0,50,27,7,30.06,29.90,14,6,17,0.00
2013-7-22,98.0,84.3,71.4,51.5,43.5,34.8,43,26,12,30.11,29.94,12,3,14,0.00
2013-7-23,99.5,81.6,66.8,41.4,35.3,15.4,35,21,5,30.14,29.97,14,5,19,0.00
2013-7-24,89.8,81.0,73.3,49.8,43.8,37.3,37,27,21,30.17,30.05,13,4,27,0.00
2013-7-25,92.6,80.6,68.3,53.3,47.6,42.1,49,33,19,30.18,30.06,20,5,26,0.00
2013-7-26,96.1,81.3,67.1,50.0,44.2,37.1,51,30,14,30.27,30.06,14,6,18,0.00
2013-7-27,91.6,77.1,65.6,60.6,47.3,38.1,82,37,23,30.18,30.00,17,4,19,0.07
2013-7-28,81.6,69.9,62.5,63.9,59.5,50.9,95,72,44,30.08,29.95,12,4,23,0.38
2013-7-29,80.8,68.0,59.1,61.0,56.5,46.6,94,70,36,30.23,30.06,15,3,25,0.48
2013-7-30,88.4,73.7,59.5,53.9,48.5,39.2,75,46,20,30.35,30.21,13,4,14,0.00
2013-7-31,94.1,78.5,65.1,48.1,44.2,38.4,50,32,15,30.35,30.12,15,7,21,0.00
2013-8-1,78.2,68.4,64.0,62.7,53.5,43.1,89,63,32,30.30,30.12,21,6,33,0.23
2013-8-2,87.2,73.0,60.2,60.9,57.1,51.5,90,62,32,30.20,30.05,11,4,15,0.00
2013-8-3,87.1,76.4,67.6,59.8,55.0,48.8,75,49,28,30.22,30.09,13,3,14,0.00
2013-8-4,87.9,74.3,63.5,56.0,52.2,47.8,65,48,28,30.24,30.12,16,4,17,0.00
2013-8-5,87.2,76.5,67.2,55.6,51.8,45.7,62,44,29,30.22,30.05,13,5,19,0.00
2013-8-6,89.1,73.1,64.7,54.5,50.0,42.9,64,46,24,30.14,30.06,21,6,35,0.01
2013-8-7,84.5,69.9,63.2,53.3,50.0,45.2,62,50,31,30.15,30.01,12,4,17,0.00
2013-8-8,85.8,70.5,61.5,53.7,48.8,40.8,68,49,22,30.16,30.02,11,3,25,0.00
2013-8-9,85.0,72.0,59.7,50.5,46.6,38.5,65,43,20,30.21,30.09,10,4,18,0.00
2013-8-10,82.9,67.8,57.4,52.1,46.6,39.3,77,49,23,30.29,30.21,15,5,28,0.00
2013-8-11,85.9,69.9,55.0,49.9,44.6,34.9,72,45,18,30.33,30.11,11,5,17,0.00
2013-8-12,83.9,73.0,60.9,47.3,42.6,39.1,50,35,22,30.25,30.11,15,5,22,0.00
2013-8-13,89.4,73.5,59.5,47.3,42.1,29.9,58,36,12,30.28,30.13,18,6,22,0.00
2013-8-14,91.1,75.3,61.1,44.0,37.5,27.6,46,29,11,30.26,30.09,20,6,25,0.00
2013-8-15,93.9,76.3,59.6,39.0,31.8,17.0,42,23,7,30.24,30.09,15,7,19,0.00
2013-8-16,94.9,78.5,61.7,37.1,30.9,17.5,31,19,6,30.26,30.09,16,6,20,0.00
2013-8-17,95.7,78.4,62.7,48.6,38.2,32.5,34,24,12,30.23,30.09,15,6,29,0.00
2013-8-18,92.4,78.6,65.3,49.6,45.4,43.3,47,32,19,30.24,30.07,12,5,15,0.00
2013-8-19,96.6,80.6,65.9,49.1,44.8,38.1,50,31,14,30.24,30.01,13,5,18,0.00
2013-8-20,89.7,79.0,69.0,51.7,47.1,43.9,46,33,22,30.16,30.04,14,5,19,0.00
2013-8-21,92.4,78.4,65.6,53.1,48.2,40.4,56,37,17,30.22,30.05,13,6,18,0.00
2013-8-22,89.7,79.5,71.3,52.1,48.5,45.5,43,34,24,30.25,30.06,13,4,16,0.00
2013-8-23,89.0,72.7,62.5,60.3,53.2,49.6,83,52,27,30.17,30.00,18,5,46,0.39
2013-8-24,85.5,72.4,61.8,56.0,52.4,45.8,75,52,26,30.21,30.08,11,4,16,0.00
2013-8-25,72.4,65.1,60.3,62.0,58.5,53.3,98,80,56,30.29,30.19,7,2,10,0.26
2013-8-26,78.8,68.3,60.6,63.8,61.1,58.3,97,79,55,30.31,30.19,9,2,11,0.12
2013-8-27,85.0,72.0,62.5,62.0,59.0,54.4,88,65,40,30.27,30.11,14,3,18,0.00
2013-8-28,89.9,76.1,62.5,59.4,53.5,46.4,75,49,23,30.22,30.09,14,4,16,0.00
2013-8-29,92.7,79.2,65.8,55.4,49.5,44.4,56,37,19,30.27,30.14,14,5,16,0.00
2013-8-30,94.3,81.1,72.0,53.0,50.3,47.6,47,35,21,30.25,30.10,18,4,19,0.00
2013-8-31,92.7,81.1,71.5,53.5,51.1,47.7,51,37,22,30.19,30.02,15,5,22,0.00
2013-9-1,91.3,78.2,65.3,55.1,53.1,48.2,66,44,26,30.17,30.01,12,5,17,0.00
2013-9-2,92.3,79.1,66.2,54.9,52.2,49.6,59,41,25,30.20,30.04,10,3,16,0.00
2013-9-3,90.5,79.2,66.7,55.6,51.5,48.4,57,40,24,30.22,30.10,15,5,16,0.00
2013-9-4,95.4,82.5,71.9,53.9,50.5,47.2,47,34,21,30.27,30.10,13,4,15,0.00
2013-9-5,95.5,82.1,71.9,52.6,50.2,45.9,48,35,19,30.27,30.10,13,4,18,0.00
2013-9-6,94.7,80.8,67.8,56.2,49.9,39.2,65,38,15,30.27,30.04,13,6,19,0.00
2013-9-7,94.5,81.9,70.0,50.7,46.8,38.6,47,31,15,30.19,29.98,14,5,20,0.00
2013-9-8,83.8,73.7,66.8,58.6,51.9,45.8,75,47,34,30.12,30.00,19,4,23,0.00
2013-9-9,67.8,62.2,59.7,60.0,58.1,53.6,94,87,63,30.09,30.02,12,3,18,0.66
2013-9-10,67.0,62.0,59.6,61.4,59.2,57.3,95,91,78,30.13,30.05,13,4,16,0.11
2013-9-11,73.3,65.3,61.2,61.1,59.1,56.3,96,81,58,30.20,30.10,14,5,17,0.26
2013-9-12,79.0,68.1,57.7,59.6,56.6,48.7,88,69,35,30.22,30.05,17,4,20,0.04
2013-9-13,80.4,67.7,58.0,58.5,55.4,51.8,88,67,38,30.13,29.91,10,2,15,0.00
2013-9-14,70.1,62.8,57.1,58.2,56.0,51.6,95,79,55,30.06,29.97,11,3,18,0.73
2013-9-15,75.7,65.2,56.8,56.7,54.2,52.0,88,69,46,30.16,30.05,10,2,13,0.00
2013-9-16,80.0,67.4,56.7,56.0,52.4,41.2,83,61,36,30.23,30.07,13,4,16,0.00
2013-9-17,77.5,64.9,57.6,60.2,52.4,47.2,83,65,42,30.13,29.88,17,8,21,0.08
2013-9-18,79.8,68.0,59.5,57.0,53.6,49.5,86,63,37,29.98,29.85,16,4,24,0.04
2013-9-19,75.3,64.1,54.7,52.2,36.5,20.5,74,40,13,30.14,29.98,14,6,19,0.00
2013-9-20,79.4,62.4,47.2,38.6,34.9,30.3,62,38,17,30.22,30.02,14,7,22,0.00
2013-9-21,82.5,67.6,55.3,51.6,40.5,35.9,57,39,22,30.09,29.82,15,6,38,0.02
2013-9-22,71.9,58.8,49.0,53.6,48.2,43.0,93,70,36,29.85,29.68,24,4,33,0.96
2013-9-23,65.8,55.2,46.8,50.2,44.4,38.8,95,70,38,30.20,29.85,9,2,11,0.03
2013-9-24,73.6,58.6,44.6,45.6,40.6,32.4,83,55,28,30.25,29.92,13,5,18,0.00
2013-9-25,79.6,68.0,49.9,41.9,32.8,23.8,73,32,13,29.92,29.54,30,9,42,0.00
2013-9-26,77.6,70.7,62.3,39.1,29.3,24.7,37,22,15,29.76,29.61,28,11,33,0.00
2013-9-27,62.8,49.4,41.4,48.0,39.7,29.6,92,71,37,30.20,29.75,14,3,22,0.61
2013-9-28,60.3,47.1,36.8,37.5,34.3,27.7,87,64,32,30.35,30.20,13,6,17,0.00
2013-9-29,69.6,53.0,39.1,39.4,35.0,31.4,77,54,26,30.30,30.06,14,5,20,0.00
2013-9-30,75.7,59.4,45.4,40.6,36.8,32.1,71,46,21,30.11,29.95,14,6,20,0.00
2013-10-1,77.3,60.8,46.3,39.3,35.7,31.1,67,42,19,30.10,29.95,17,6,20,0.00
2013-10-2,77.0,62.5,47.5,37.5,33.6,25.6,61,37,17,30.06,29.87,16,6,22,0.00
2013-10-3,71.7,57.3,36.5,36.0,33.2,25.8,92,45,24,30.04,29.68,21,6,38,0.41
2013-10-4,43.4,37.3,32.2,36.2,31.2,25.7,96,80,56,30.38,30.03,11,3,22,0.34
2013-10-5,53.5,42.5,34.0,30.9,27.7,24.8,80,58,34,30.46,30.37,12,4,17,0.00
2013-10-6,60.7,46.1,34.0,38.8,32.4,27.6,79,61,34,30.49,30.31,12,5,15,0.00
2013-10-7,66.2,51.7,38.9,39.8,36.5,33.2,81,59,34,30.33,30.07,14,6,18,0.00
2013-10-8,73.9,58.2,44.3,40.4,34.2,25.4,74,45,19,30.06,29.81,24,8,32,0.00
2013-10-9,69.9,58.3,46.1,38.7,30.4,19.9,59,36,15,29.89,29.79,13,3,20,0.00
2013-10-10,62.0,49.9,43.1,45.2,40.7,32.5,93,73,33,29.89,29.74,20,4,30,0.69
2013-10-11,57.8,49.4,43.3,43.8,40.1,35.8,91,72,46,30.12,29.88,9,2,12,0.02
2013-10-12,63.5,49.1,39.7,40.0,37.0,31.8,86,66,32,30.18,30.03,16,6,18,0.00
2013-10-13,68.5,54.6,42.8,42.2,37.5,33.2,74,55,31,30.08,29.87,17,6,21,0.02
2013-10-14,51.0,45.4,42.7,42.9,40.6,38.4,93,83,65,30.20,29.98,14,4,20,0.31
2013-10-15,50.7,44.3,40.6,39.2,32.7,27.5,86,65,46,30.21,30.12,16,7,19,0.00
2013-10-16,52.1,42.4,34.4,29.7,26.2,22.8,71,54,32,30.25,30.16,14,5,17,0.00
2013-10-17,56.8,44.3,34.1,31.4,28.7,26.0,80,57,33,30.22,30.01,14,5,18,0.00
2013-10-18,53.3,45.1,38.5,33.2,26.5,20.3,68,50,28,30.26,30.05,12,5,22,0.00
2013-10-19,57.5,43.5,32.7,29.7,26.5,23.8,73,53,30,30.30,30.12,15,6,19,0.00
2013-10-20,59.5,46.3,36.6,31.6,28.6,24.9,71,52,27,30.14,29.99,15,6,18,0.00
2013-10-21,62.4,48.7,37.9,32.8,29.9,25.5,72,51,25,30.27,30.07,16,6,19,0.00
2013-10-22,64.4,48.4,36.7,31.9,29.5,27.6,70,50,27,30.35,30.20,16,6,20,0.00
2013-10-23,66.3,49.9,37.2,33.9,31.2,29.1,73,51,26,30.29,30.13,16,6,19,0.00
2013-10-24,67.9,50.9,38.5,35.7,31.3,27.6,70,49,24,30.26,30.13,15,6,21,0.00
2013-10-25,65.9,53.0,43.1,36.4,32.4,28.5,61,47,31,30.28,30.18,17,6,18,0.00
2013-10-26,66.7,51.4,39.1,36.8,33.1,28.8,76,52,29,30.39,30.24,12,5,16,0.00
2013-10-27,65.0,50.1,38.1,35.9,31.6,28.3,68,50,32,30.25,29.84,14,6,19,0.00
2013-10-28,67.4,56.5,41.6,34.3,27.1,18.8,69,37,17,29.84,29.68,26,7,35,0.00
2013-10-29,58.7,45.3,34.4,40.6,34.6,22.9,94,72,25,30.00,29.76,29,6,38,0.79
2013-10-30,45.5,39.7,36.8,39.2,36.2,33.7,95,87,71,30.04,29.95,11,1,26,0.18
2013-10-31,47.2,40.4,36.2,37.9,35.7,33.9,93,84,62,30.18,30.04,6,1,8,0.00
2013-11-1,54.9,42.8,34.2,37.3,33.9,31.0,92,73,44,30.34,30.15,10,2,14,0.00
2013-11-2,55.7,42.2,33.5,33.6,31.0,28.9,84,67,38,30.35,29.95,17,6,17,0.00
2013-11-3,61.5,45.7,34.0,33.5,29.5,22.3,86,58,26,30.00,29.70,21,5,30,0.00
2013-11-4,42.3,35.7,30.2,29.7,23.0,19.0,85,60,45,30.04,29.90,12,4,19,0.00
2013-11-5,40.7,33.2,28.0,29.0,19.3,12.6,93,59,32,30.36,30.02,13,4,18,0.00
2013-11-6,45.3,33.1,24.0,22.3,17.7,14.5,71,55,30,30.52,30.36,14,6,19,0.00
2013-11-7,52.1,38.4,28.0,28.3,23.9,21.0,76,58,34,30.55,30.21,16,6,20,0.00
2013-11-8,58.5,42.5,31.8,31.1,27.4,24.1,79,58,27,30.21,30.06,9,3,15,0.00
2013-11-9,59.5,43.9,31.8,30.4,27.6,25.1,76,55,30,30.28,30.17,17,6,18,0.00
2013-11-10,60.3,44.7,33.6,30.9,27.5,24.8,75,53,29,30.37,30.25,14,7,19,0.00
2013-11-11,62.4,44.5,32.7,29.1,26.8,25.0,74,52,27,30.47,30.33,19,7,23,0.00
2013-11-12,62.1,45.2,33.9,29.2,26.4,22.5,72,50,25,30.59,30.42,18,8,22,0.00
2013-11-13,53.3,42.3,32.8,29.5,25.5,22.2,68,53,33,30.46,30.17,17,6,20,0.00
2013-11-14,55.9,44.6,34.7,31.6,27.4,19.9,71,52,25,30.19,29.85,10,4,14,0.00
2013-11-15,57.3,42.0,32.2,33.7,27.0,23.0,69,56,34,29.85,29.57,20,5,34,0.00
2013-11-16,49.1,40.6,32.1,35.2,31.0,27.6,85,69,45,29.74,29.55,19,3,33,0.01
2013-11-17,56.0,42.3,33.0,33.4,30.7,29.3,86,65,37,30.22,29.74,11,3,16,0.00
2013-11-18,55.1,40.2,30.5,30.2,28.4,26.3,85,65,36,30.32,30.14,17,7,21,0.00
2013-11-19,46.1,39.2,31.6,36.7,29.6,25.7,83,69,53,30.14,29.91,18,7,21,0.00
2013-11-20,48.7,42.2,35.0,39.5,36.5,32.4,94,81,62,29.98,29.85,13,4,17,0.06
2013-11-21,46.9,37.6,27.8,40.9,34.1,18.8,96,87,68,30.29,29.91,25,6,30,0.17
2013-11-22,36.2,31.5,27.8,31.2,24.5,19.0,97,76,64,30.35,30.24,19,8,26,0.00
2013-11-23,37.3,34.1,31.5,34.0,32.3,30.6,97,93,87,30.32,30.16,12,4,15,0.34
2013-11-24,39.5,35.4,32.7,37.5,33.8,31.2,97,94,85,30.19,30.08,7,1,9,0.07
2013-11-25,45.2,34.7,29.0,35.7,29.8,26.6,96,83,51,30.39,30.12,10,3,12,0.00
2013-11-26,45.6,34.3,27.0,32.7,27.2,23.1,87,76,54,30.49,30.37,12,5,15,0.00
2013-11-27,45.6,33.8,26.4,30.0,26.5,22.3,88,75,49,30.40,30.20,14,5,17,0.00
2013-11-28,41.5,32.7,26.5,32.7,28.1,23.2,91,83,62,30.30,30.20,10,4,13,0.00
2013-11-29,35.8,33.5,31.3,31.2,29.8,28.8,92,86,79,30.41,30.30,8,2,11,0.00
2013-11-30,35.6,33.4,31.2,29.6,28.4,27.2,86,82,75,30.44,30.33,9,2,11,0.00
2013-12-1,36.5,34.0,32.0,29.8,28.7,27.7,88,81,73,30.45,30.30,6,1,13,0.00
2013-12-2,34.7,32.9,31.1,29.9,29.2,28.0,93,86,80,30.30,29.83,4,1,6,0.00
2013-12-3,40.2,33.5,26.3,32.7,29.1,24.0,95,84,71,29.83,29.44,17,5,23,0.03
2013-12-4,26.2,15.5,2.5,24.8,9.0,-4.1,95,76,60,30.05,29.45,19,9,25,0.00
2013-12-5,14.0,4.4,-6.2,4.4,-2.3,-10.5,81,74,64,30.05,29.93,20,10,23,0.00
2013-12-6,20.9,8.5,2.7,8.4,2.2,-2.3,83,75,58,30.15,30.01,15,6,20,0.00
2013-12-7,21.7,16.3,9.3,20.0,12.1,4.2,93,83,76,30.12,29.65,20,7,24,0.00
2013-12-8,25.0,17.8,5.5,20.2,11.5,0.9,94,77,50,30.09,29.66,10,3,12,0.00
2013-12-9,18.1,8.3,1.7,5.2,0.0,-4.2,81,70,44,30.52,30.09,13,5,20,0.00
2013-12-10,17.5,5.8,-3.7,5.3,-1.6,-8.7,80,71,51,30.54,30.35,17,6,22,0.00
2013-12-11,24.4,12.9,5.6,10.1,5.4,0.9,83,72,54,30.59,30.41,13,6,18,0.00
2013-12-12,25.8,12.5,4.7,14.6,7.2,0.7,89,79,61,30.59,30.24,17,6,22,0.00
2013-12-13,19.6,13.4,6.7,13.6,9.0,3.1,87,83,72,30.33,30.12,12,4,16,0.00
2013-12-14,28.7,18.1,9.0,18.8,12.9,5.5,90,80,65,30.53,30.34,8,2,11,0.00
2013-12-15,32.7,21.8,15.3,21.0,16.1,11.5,88,79,60,30.56,30.45,16,6,20,0.00
2013-12-16,34.1,22.7,15.7,23.5,17.3,12.2,92,80,63,30.54,30.44,15,5,20,0.00
2013-12-17,37.9,24.2,16.8,24.7,18.6,13.3,91,80,56,30.57,30.36,15,6,20,0.00
2013-12-18,31.2,24.6,18.2,23.6,20.2,15.8,92,83,71,30.37,29.89,13,5,17,0.00
2013-12-19,35.7,28.8,22.5,26.9,23.9,19.7,91,82,69,29.93,29.69,12,3,20,0.00
2013-12-20,32.9,27.8,20.7,28.9,25.5,19.0,94,91,84,29.81,29.75,9,2,11,0.01
2013-12-21,29.7,23.9,17.8,26.0,21.2,15.1,94,90,83,30.00,29.69,8,2,14,0.00
2013-12-22,31.7,23.1,14.6,24.4,18.6,11.7,93,83,65,30.33,30.00,9,2,11,0.00
2013-12-23,38.9,26.4,18.6,25.2,20.4,15.1,91,79,54,30.51,30.33,8,2,9,0.01
2013-12-24,32.6,25.9,20.9,25.6,20.4,16.1,87,80,72,30.47,30.31,14,3,16,0.00
2013-12-25,32.3,22.6,14.7,16.4,13.0,9.4,80,67,50,30.58,30.47,18,10,23,0.00
2013-12-26,34.4,22.5,13.7,16.0,12.1,7.8,77,65,43,30.54,30.41,17,8,23,0.00
2013-12-27,40.8,25.4,16.9,22.6,16.0,11.1,84,68,44,30.50,30.28,17,6,22,0.00
2013-12-28,34.5,24.0,18.2,23.3,18.3,14.2,89,79,59,30.29,30.03,13,5,17,0.00
2013-12-29,37.2,27.0,18.1,23.0,16.9,14.0,95,67,42,30.29,30.12,15,4,19,0.00
2013-12-30,39.9,26.1,19.4,21.1,16.3,13.3,78,67,40,30.42,30.27,19,5,20,0.00
2013-12-31,38.1,29.2,21.6,23.0,19.7,14.9,77,68,51,30.37,30.19,18,4,22,0.00
2014-1-1,39.5,28.9,21.5,25.1,21.5,18.7,90,75,55,30.39,30.16,10,3,14,0.00
2014-1-2,40.9,26.8,17.7,21.2,16.9,12.8,81,67,41,30.44,30.27,18,6,22,0.00